sensor_id;sensor_type;location;lat;lon;timestamp;P1;durP1;ratioP1;P2;durP2;ratioP2
22794;SDS011;11564;50.920;11.612;2022-12-18T00:58:49;9.48;;;6.28;;
22794;SDS011;11564;50.920;11.612;2022-12-18T01:01:14;13.80;;;6.43;;
22794;SDS011;11564;50.920;11.612;2022-12-18T01:03:40;9.95;;;6.35;;
22794;SDS011;11564;50.920;11.612;2022-12-18T01:06:07;13.90;;;6.97;;
22794;SDS011;11564;50.920;11.612;2022-12-18T01:08:34;10.90;;;6.90;;
22794;SDS011;11564;50.920;11.612;2022-12-18T01:11:00;7.93;;;6.40;;
22794;SDS011;11564;50.920;11.612;2022-12-18T01:13:31;9.77;;;5.68;;
22794;SDS011;11564;50.920;11.612;2022-12-18T01:15:57;11.68;;;6.38;;
22794;SDS011;11564;50.920;11.612;2022-12-18T01:18:23;8.80;;;6.83;;
22794;SDS011;11564;50.920;11.612;2022-12-18T01:20:49;11.27;;;6.70;;
22794;SDS011;11564;50.920;11.612;2022-12-18T01:23:14;11.63;;;7.00;;
22794;SDS011;11564;50.920;11.612;2022-12-18T01:25:40;14.17;;;8.00;;
22794;SDS011;11564;50.920;11.612;2022-12-18T01:28:06;11.90;;;6.90;;
22794;SDS011;11564;50.920;11.612;2022-12-18T01:30:31;11.63;;;7.00;;
22794;SDS011;11564;50.920;11.612;2022-12-18T01:32:57;10.70;;;7.10;;
22794;SDS011;11564;50.920;11.612;2022-12-18T01:35:23;11.03;;;7.10;;
22794;SDS011;11564;50.920;11.612;2022-12-18T01:37:48;8.43;;;6.50;;
22794;SDS011;11564;50.920;11.612;2022-12-18T01:40:14;9.53;;;7.67;;
22794;SDS011;11564;50.920;11.612;2022-12-18T01:42:39;10.00;;;6.43;;
22794;SDS011;11564;50.920;11.612;2022-12-18T01:47:50;15.77;;;8.05;;
22794;SDS011;11564;50.920;11.612;2022-12-18T01:50:34;11.77;;;7.25;;
22794;SDS011;11564;50.920;11.612;2022-12-18T01:55:43;9.52;;;7.32;;
22794;SDS011;11564;50.920;11.612;2022-12-18T01:58:18;11.52;;;7.65;;
22794;SDS011;11564;50.920;11.612;2022-12-18T02:00:47;19.35;;;8.18;;
22794;SDS011;11564;50.920;11.612;2022-12-18T02:03:13;14.47;;;8.07;;
22794;SDS011;11564;50.920;11.612;2022-12-18T02:11:33;8.88;;;6.55;;
22794;SDS011;11564;50.920;11.612;2022-12-18T02:14:38;9.80;;;6.47;;
22794;SDS011;11564;50.920;11.612;2022-12-18T02:27:56;15.20;;;6.57;;
22794;SDS011;11564;50.920;11.612;2022-12-18T02:30:25;7.50;;;6.70;;
22794;SDS011;11564;50.920;11.612;2022-12-18T02:32:54;13.23;;;5.68;;
22794;SDS011;11564;50.920;11.612;2022-12-18T02:35:23;11.98;;;6.32;;
22794;SDS011;11564;50.920;11.612;2022-12-18T02:37:52;15.40;;;6.65;;
22794;SDS011;11564;50.920;11.612;2022-12-18T02:40:18;14.85;;;6.55;;
22794;SDS011;11564;50.920;11.612;2022-12-18T02:42:45;11.40;;;6.90;;
22794;SDS011;11564;50.920;11.612;2022-12-18T02:45:11;8.23;;;5.73;;
22794;SDS011;11564;50.920;11.612;2022-12-18T02:47:38;10.57;;;6.20;;
22794;SDS011;11564;50.920;11.612;2022-12-18T02:50:22;11.10;;;6.60;;
22794;SDS011;11564;50.920;11.612;2022-12-18T02:53:23;14.88;;;5.00;;
22794;SDS011;11564;50.920;11.612;2022-12-18T02:58:29;7.70;;;6.10;;
22794;SDS011;11564;50.920;11.612;2022-12-18T03:01:13;10.15;;;7.18;;
22794;SDS011;11564;50.920;11.612;2022-12-18T03:04:03;11.82;;;5.90;;
22794;SDS011;11564;50.920;11.612;2022-12-18T03:06:33;13.10;;;6.47;;
22794;SDS011;11564;50.920;11.612;2022-12-18T03:09:09;8.65;;;5.90;;
22794;SDS011;11564;50.920;11.612;2022-12-18T03:11:40;10.52;;;5.63;;
22794;SDS011;11564;50.920;11.612;2022-12-18T03:14:30;10.63;;;6.65;;
22794;SDS011;11564;50.920;11.612;2022-12-18T03:17:00;8.30;;;5.90;;
22794;SDS011;11564;50.920;11.612;2022-12-18T03:19:28;10.25;;;6.78;;
22794;SDS011;11564;50.920;11.612;2022-12-18T03:21:57;10.45;;;7.18;;
22794;SDS011;11564;50.920;11.612;2022-12-18T03:24:26;8.35;;;6.20;;
22794;SDS011;11564;50.920;11.612;2022-12-18T03:26:55;7.60;;;5.43;;
22794;SDS011;11564;50.920;11.612;2022-12-18T03:29:26;9.88;;;6.57;;
22794;SDS011;11564;50.920;11.612;2022-12-18T03:32:27;13.38;;;6.90;;
22794;SDS011;11564;50.920;11.612;2022-12-18T03:34:57;9.35;;;5.50;;
22794;SDS011;11564;50.920;11.612;2022-12-18T03:37:28;11.52;;;5.78;;
22794;SDS011;11564;50.920;11.612;2022-12-18T03:39:57;8.68;;;5.60;;
22794;SDS011;11564;50.920;11.612;2022-12-18T03:42:25;8.73;;;5.80;;
22794;SDS011;11564;50.920;11.612;2022-12-18T03:44:57;14.32;;;6.15;;
22794;SDS011;11564;50.920;11.612;2022-12-18T03:50:13;9.57;;;6.13;;
22794;SDS011;11564;50.920;11.612;2022-12-18T03:52:53;9.82;;;6.38;;
22794;SDS011;11564;50.920;11.612;2022-12-18T03:55:29;12.35;;;7.03;;
22794;SDS011;11564;50.920;11.612;2022-12-18T03:57:58;8.35;;;6.07;;
22794;SDS011;11564;50.920;11.612;2022-12-18T04:00:26;9.45;;;5.90;;
22794;SDS011;11564;50.920;11.612;2022-12-18T04:02:54;7.15;;;5.80;;
22794;SDS011;11564;50.920;11.612;2022-12-18T04:05:22;12.77;;;6.07;;
22794;SDS011;11564;50.920;11.612;2022-12-18T04:07:50;8.38;;;6.03;;
22794;SDS011;11564;50.920;11.612;2022-12-18T04:10:18;6.68;;;5.00;;
22794;SDS011;11564;50.920;11.612;2022-12-18T04:12:44;8.57;;;6.07;;
22794;SDS011;11564;50.920;11.612;2022-12-18T04:15:10;6.77;;;5.20;;
22794;SDS011;11564;50.920;11.612;2022-12-18T04:17:37;9.52;;;6.65;;
22794;SDS011;11564;50.920;11.612;2022-12-18T04:20:04;8.05;;;5.32;;
22794;SDS011;11564;50.920;11.612;2022-12-18T04:22:30;8.32;;;5.40;;
22794;SDS011;11564;50.920;11.612;2022-12-18T04:24:56;6.40;;;4.67;;
22794;SDS011;11564;50.920;11.612;2022-12-18T04:27:21;9.33;;;5.70;;
22794;SDS011;11564;50.920;11.612;2022-12-18T04:29:47;10.00;;;6.23;;
22794;SDS011;11564;50.920;11.612;2022-12-18T04:32:12;6.57;;;5.47;;
22794;SDS011;11564;50.920;11.612;2022-12-18T04:34:38;7.13;;;5.67;;
22794;SDS011;11564;50.920;11.612;2022-12-18T04:37:04;9.10;;;5.57;;
22794;SDS011;11564;50.920;11.612;2022-12-18T04:39:29;6.80;;;4.67;;
22794;SDS011;11564;50.920;11.612;2022-12-18T04:41:55;7.60;;;5.37;;
22794;SDS011;11564;50.920;11.612;2022-12-18T04:44:21;4.60;;;4.17;;
22794;SDS011;11564;50.920;11.612;2022-12-18T04:46:46;9.40;;;5.30;;
22794;SDS011;11564;50.920;11.612;2022-12-18T04:49:12;7.13;;;5.23;;
22794;SDS011;11564;50.920;11.612;2022-12-18T04:51:38;6.00;;;4.40;;
22794;SDS011;11564;50.920;11.612;2022-12-18T04:54:04;7.45;;;4.97;;
22794;SDS011;11564;50.920;11.612;2022-12-18T04:56:30;6.97;;;4.40;;
22794;SDS011;11564;50.920;11.612;2022-12-18T04:58:56;9.32;;;4.50;;
22794;SDS011;11564;50.920;11.612;2022-12-18T05:01:22;5.20;;;3.67;;
22794;SDS011;11564;50.920;11.612;2022-12-18T05:03:48;4.60;;;3.97;;
22794;SDS011;11564;50.920;11.612;2022-12-18T05:06:13;10.83;;;5.63;;
22794;SDS011;11564;50.920;11.612;2022-12-18T05:08:39;6.10;;;4.80;;
22794;SDS011;11564;50.920;11.612;2022-12-18T05:11:06;6.90;;;4.70;;
22794;SDS011;11564;50.920;11.612;2022-12-18T05:13:34;6.85;;;4.70;;
22794;SDS011;11564;50.920;11.612;2022-12-18T05:16:00;8.70;;;5.03;;
22794;SDS011;11564;50.920;11.612;2022-12-18T05:18:26;7.28;;;5.28;;
22794;SDS011;11564;50.920;11.612;2022-12-18T05:20:52;8.23;;;4.90;;
22794;SDS011;11564;50.920;11.612;2022-12-18T05:23:19;7.00;;;4.90;;
22794;SDS011;11564;50.920;11.612;2022-12-18T05:26:05;5.65;;;4.70;;
22794;SDS011;11564;50.920;11.612;2022-12-18T05:28:33;8.07;;;5.45;;
22794;SDS011;11564;50.920;11.612;2022-12-18T05:31:01;10.25;;;5.35;;
22794;SDS011;11564;50.920;11.612;2022-12-18T05:33:31;7.95;;;5.25;;
22794;SDS011;11564;50.920;11.612;2022-12-18T05:35:59;9.13;;;6.18;;
22794;SDS011;11564;50.920;11.612;2022-12-18T05:38:27;9.82;;;5.75;;
22794;SDS011;11564;50.920;11.612;2022-12-18T05:40:54;8.80;;;5.10;;
22794;SDS011;11564;50.920;11.612;2022-12-18T05:43:20;5.95;;;4.68;;
22794;SDS011;11564;50.920;11.612;2022-12-18T05:45:46;9.52;;;6.10;;
22794;SDS011;11564;50.920;11.612;2022-12-18T05:48:13;6.90;;;5.05;;
22794;SDS011;11564;50.920;11.612;2022-12-18T05:50:40;7.05;;;5.47;;
22794;SDS011;11564;50.920;11.612;2022-12-18T05:53:07;5.57;;;4.53;;
22794;SDS011;11564;50.920;11.612;2022-12-18T05:55:33;10.25;;;5.38;;
22794;SDS011;11564;50.920;11.612;2022-12-18T05:58:03;5.72;;;4.90;;
22794;SDS011;11564;50.920;11.612;2022-12-18T06:00:30;7.45;;;4.72;;
22794;SDS011;11564;50.920;11.612;2022-12-18T06:02:57;8.30;;;5.30;;
22794;SDS011;11564;50.920;11.612;2022-12-18T06:05:23;6.70;;;4.95;;
22794;SDS011;11564;50.920;11.612;2022-12-18T06:07:49;8.07;;;4.07;;
22794;SDS011;11564;50.920;11.612;2022-12-18T06:10:15;5.97;;;4.90;;
22794;SDS011;11564;50.920;11.612;2022-12-18T06:12:41;5.33;;;4.40;;
22794;SDS011;11564;50.920;11.612;2022-12-18T06:15:06;7.60;;;4.60;;
22794;SDS011;11564;50.920;11.612;2022-12-18T06:17:33;6.95;;;5.03;;
22794;SDS011;11564;50.920;11.612;2022-12-18T06:19:59;8.77;;;4.80;;
22794;SDS011;11564;50.920;11.612;2022-12-18T06:22:26;5.53;;;4.68;;
22794;SDS011;11564;50.920;11.612;2022-12-18T06:24:52;8.80;;;5.88;;
22794;SDS011;11564;50.920;11.612;2022-12-18T06:27:17;6.10;;;4.90;;
22794;SDS011;11564;50.920;11.612;2022-12-18T06:29:43;6.93;;;5.27;;
22794;SDS011;11564;50.920;11.612;2022-12-18T09:52:52;9.07;;;6.57;;
22794;SDS011;11564;50.920;11.612;2022-12-18T12:41:22;11.80;;;9.10;;
22794;SDS011;11564;50.920;11.612;2022-12-18T12:46:55;10.40;;;7.50;;
22794;SDS011;11564;50.920;11.612;2022-12-18T12:49:25;6.63;;;4.97;;
22794;SDS011;11564;50.920;11.612;2022-12-18T12:51:57;5.73;;;4.20;;
22794;SDS011;11564;50.920;11.612;2022-12-18T12:54:37;5.53;;;4.90;;
22794;SDS011;11564;50.920;11.612;2022-12-18T13:03:03;10.07;;;5.87;;
22794;SDS011;11564;50.920;11.612;2022-12-18T13:05:46;6.13;;;5.00;;
22794;SDS011;11564;50.920;11.612;2022-12-18T13:08:25;7.07;;;4.20;;
22794;SDS011;11564;50.920;11.612;2022-12-18T13:10:52;5.70;;;4.47;;
22794;SDS011;11564;50.920;11.612;2022-12-18T13:14:02;5.00;;;3.50;;
22794;SDS011;11564;50.920;11.612;2022-12-18T13:16:27;5.70;;;3.50;;
22794;SDS011;11564;50.920;11.612;2022-12-18T13:18:54;7.60;;;3.90;;
22794;SDS011;11564;50.920;11.612;2022-12-18T13:23:52;5.07;;;3.93;;
22794;SDS011;11564;50.920;11.612;2022-12-18T13:34:22;4.03;;;3.63;;
22794;SDS011;11564;50.920;11.612;2022-12-18T13:36:56;4.23;;;3.50;;
22794;SDS011;11564;50.920;11.612;2022-12-18T13:39:43;5.13;;;3.83;;
22794;SDS011;11564;50.920;11.612;2022-12-18T13:44:34;3.87;;;3.40;;
22794;SDS011;11564;50.920;11.612;2022-12-18T13:47:05;7.90;;;4.40;;
22794;SDS011;11564;50.920;11.612;2022-12-18T13:49:53;4.43;;;3.77;;
22794;SDS011;11564;50.920;11.612;2022-12-18T13:52:24;5.37;;;4.17;;
22794;SDS011;11564;50.920;11.612;2022-12-18T13:54:55;5.10;;;4.40;;
22794;SDS011;11564;50.920;11.612;2022-12-18T13:57:44;4.07;;;3.73;;
22794;SDS011;11564;50.920;11.612;2022-12-18T14:02:44;5.43;;;3.70;;
22794;SDS011;11564;50.920;11.612;2022-12-18T14:05:27;5.00;;;3.87;;
22794;SDS011;11564;50.920;11.612;2022-12-18T14:07:55;5.30;;;4.70;;
22794;SDS011;11564;50.920;11.612;2022-12-18T14:10:26;8.70;;;5.77;;
22794;SDS011;11564;50.920;11.612;2022-12-18T14:12:52;5.13;;;4.63;;
22794;SDS011;11564;50.920;11.612;2022-12-18T14:18:00;5.50;;;4.20;;
22794;SDS011;11564;50.920;11.612;2022-12-18T14:20:32;4.60;;;3.70;;
22794;SDS011;11564;50.920;11.612;2022-12-18T14:22:59;7.50;;;3.80;;
22794;SDS011;11564;50.920;11.612;2022-12-18T14:25:26;4.23;;;3.33;;
22794;SDS011;11564;50.920;11.612;2022-12-18T14:28:00;6.33;;;4.00;;
22794;SDS011;11564;50.920;11.612;2022-12-18T14:30:43;6.10;;;4.70;;
22794;SDS011;11564;50.920;11.612;2022-12-18T14:35:40;5.77;;;4.43;;
22794;SDS011;11564;50.920;11.612;2022-12-18T14:40:47;10.50;;;6.07;;
22794;SDS011;11564;50.920;11.612;2022-12-18T14:43:16;9.23;;;6.70;;
22794;SDS011;11564;50.920;11.612;2022-12-18T14:45:42;7.23;;;5.70;;
22794;SDS011;11564;50.920;11.612;2022-12-18T14:48:14;27.97;;;14.50;;
22794;SDS011;11564;50.920;11.612;2022-12-18T14:50:40;9.07;;;6.80;;
22794;SDS011;11564;50.920;11.612;2022-12-18T14:58:57;14.37;;;8.80;;
22794;SDS011;11564;50.920;11.612;2022-12-18T15:01:26;13.97;;;9.37;;
22794;SDS011;11564;50.920;11.612;2022-12-18T15:03:58;15.87;;;10.67;;
22794;SDS011;11564;50.920;11.612;2022-12-18T15:06:26;7.03;;;5.73;;
22794;SDS011;11564;50.920;11.612;2022-12-18T15:08:55;5.37;;;4.20;;
22794;SDS011;11564;50.920;11.612;2022-12-18T15:11:28;5.10;;;4.60;;
22794;SDS011;11564;50.920;11.612;2022-12-18T15:13:59;10.07;;;6.30;;
22794;SDS011;11564;50.920;11.612;2022-12-18T15:16:49;5.77;;;5.17;;
22794;SDS011;11564;50.920;11.612;2022-12-18T15:19:19;6.90;;;5.63;;
22794;SDS011;11564;50.920;11.612;2022-12-18T15:21:47;5.70;;;4.70;;
22794;SDS011;11564;50.920;11.612;2022-12-18T15:24:21;5.60;;;4.23;;
22794;SDS011;11564;50.920;11.612;2022-12-18T15:26:51;6.57;;;5.77;;
22794;SDS011;11564;50.920;11.612;2022-12-18T15:29:18;9.90;;;5.40;;
22794;SDS011;11564;50.920;11.612;2022-12-18T15:34:43;7.00;;;4.50;;
22794;SDS011;11564;50.920;11.612;2022-12-18T15:37:09;6.37;;;5.00;;
22794;SDS011;11564;50.920;11.612;2022-12-18T15:39:34;4.50;;;3.63;;
22794;SDS011;11564;50.920;11.612;2022-12-18T15:42:01;6.88;;;4.47;;
22794;SDS011;11564;50.920;11.612;2022-12-18T15:44:45;4.80;;;4.30;;
22794;SDS011;11564;50.920;11.612;2022-12-18T15:47:11;7.17;;;4.90;;
22794;SDS011;11564;50.920;11.612;2022-12-18T15:49:38;7.93;;;4.17;;
22794;SDS011;11564;50.920;11.612;2022-12-18T15:52:04;9.03;;;4.30;;
22794;SDS011;11564;50.920;11.612;2022-12-18T15:54:30;9.40;;;4.70;;
22794;SDS011;11564;50.920;11.612;2022-12-18T15:57:14;4.77;;;4.00;;
22794;SDS011;11564;50.920;11.612;2022-12-18T15:59:50;5.00;;;3.77;;
22794;SDS011;11564;50.920;11.612;2022-12-18T16:02:18;5.80;;;3.20;;
22794;SDS011;11564;50.920;11.612;2022-12-18T16:04:44;5.90;;;3.75;;
22794;SDS011;11564;50.920;11.612;2022-12-18T16:07:10;4.63;;;4.10;;
22794;SDS011;11564;50.920;11.612;2022-12-18T16:09:36;7.23;;;3.50;;
22794;SDS011;11564;50.920;11.612;2022-12-18T16:12:03;6.00;;;2.90;;
22794;SDS011;11564;50.920;11.612;2022-12-18T16:14:30;4.60;;;3.70;;
22794;SDS011;11564;50.920;11.612;2022-12-18T16:17:03;8.00;;;6.73;;
22794;SDS011;11564;50.920;11.612;2022-12-18T16:19:33;6.83;;;5.77;;
22794;SDS011;11564;50.920;11.612;2022-12-18T16:21:59;6.37;;;4.70;;
22794;SDS011;11564;50.920;11.612;2022-12-18T16:24:26;5.87;;;3.53;;
22794;SDS011;11564;50.920;11.612;2022-12-18T16:26:53;3.73;;;3.43;;
22794;SDS011;11564;50.920;11.612;2022-12-18T16:29:20;7.13;;;5.07;;
22794;SDS011;11564;50.920;11.612;2022-12-18T16:31:59;38.03;;;22.00;;
22794;SDS011;11564;50.920;11.612;2022-12-18T16:34:29;42.83;;;23.27;;
22794;SDS011;11564;50.920;11.612;2022-12-18T16:36:57;24.47;;;14.87;;
22794;SDS011;11564;50.920;11.612;2022-12-18T16:39:24;14.23;;;10.10;;
22794;SDS011;11564;50.920;11.612;2022-12-18T16:41:50;13.63;;;9.20;;
22794;SDS011;11564;50.920;11.612;2022-12-18T16:44:16;10.70;;;5.93;;
22794;SDS011;11564;50.920;11.612;2022-12-18T16:46:42;9.80;;;7.23;;
22794;SDS011;11564;50.920;11.612;2022-12-18T16:49:10;7.63;;;5.30;;
22794;SDS011;11564;50.920;11.612;2022-12-18T16:51:40;18.83;;;11.13;;
22794;SDS011;11564;50.920;11.612;2022-12-18T16:54:06;7.80;;;6.30;;
22794;SDS011;11564;50.920;11.612;2022-12-18T16:56:32;10.37;;;7.20;;
22794;SDS011;11564;50.920;11.612;2022-12-18T16:58:58;6.00;;;4.90;;
22794;SDS011;11564;50.920;11.612;2022-12-18T17:01:25;4.90;;;4.27;;
22794;SDS011;11564;50.920;11.612;2022-12-18T17:04:03;6.67;;;5.80;;
22794;SDS011;11564;50.920;11.612;2022-12-18T17:06:31;4.50;;;3.93;;
22794;SDS011;11564;50.920;11.612;2022-12-18T17:08:58;5.77;;;4.90;;
22794;SDS011;11564;50.920;11.612;2022-12-18T17:11:26;7.60;;;6.10;;
22794;SDS011;11564;50.920;11.612;2022-12-18T17:13:53;7.60;;;5.87;;
22794;SDS011;11564;50.920;11.612;2022-12-18T17:16:19;7.90;;;5.20;;
22794;SDS011;11564;50.920;11.612;2022-12-18T17:18:45;9.13;;;4.00;;
22794;SDS011;11564;50.920;11.612;2022-12-18T17:21:11;6.63;;;3.63;;
22794;SDS011;11564;50.920;11.612;2022-12-18T17:23:38;5.23;;;3.50;;
22794;SDS011;11564;50.920;11.612;2022-12-18T17:26:05;3.90;;;3.33;;
22794;SDS011;11564;50.920;11.612;2022-12-18T17:28:32;3.37;;;3.07;;
22794;SDS011;11564;50.920;11.612;2022-12-18T17:30:59;4.63;;;3.70;;
22794;SDS011;11564;50.920;11.612;2022-12-18T17:33:25;4.50;;;4.03;;
22794;SDS011;11564;50.920;11.612;2022-12-18T17:35:51;5.20;;;3.80;;
22794;SDS011;11564;50.920;11.612;2022-12-18T17:38:17;4.50;;;3.50;;
22794;SDS011;11564;50.920;11.612;2022-12-18T17:40:43;4.50;;;4.03;;
22794;SDS011;11564;50.920;11.612;2022-12-18T17:43:09;6.10;;;4.30;;
22794;SDS011;11564;50.920;11.612;2022-12-18T17:45:39;4.63;;;4.17;;
22794;SDS011;11564;50.920;11.612;2022-12-18T17:48:05;9.45;;;6.70;;
22794;SDS011;11564;50.920;11.612;2022-12-18T17:50:33;35.77;;;21.43;;
22794;SDS011;11564;50.920;11.612;2022-12-18T17:52:59;6.17;;;4.10;;
22794;SDS011;11564;50.920;11.612;2022-12-18T17:55:25;9.43;;;3.80;;
22794;SDS011;11564;50.920;11.612;2022-12-18T17:57:52;4.63;;;3.97;;
22794;SDS011;11564;50.920;11.612;2022-12-18T18:00:18;5.87;;;5.10;;
22794;SDS011;11564;50.920;11.612;2022-12-18T18:02:44;4.93;;;3.80;;
22794;SDS011;11564;50.920;11.612;2022-12-18T18:05:10;7.10;;;5.00;;
22794;SDS011;11564;50.920;11.612;2022-12-18T18:07:36;4.90;;;3.93;;
22794;SDS011;11564;50.920;11.612;2022-12-18T18:10:03;7.03;;;4.50;;
22794;SDS011;11564;50.920;11.612;2022-12-18T18:12:30;4.80;;;4.03;;
22794;SDS011;11564;50.920;11.612;2022-12-18T18:15:15;5.60;;;4.47;;
22794;SDS011;11564;50.920;11.612;2022-12-18T18:17:40;6.77;;;4.47;;
22794;SDS011;11564;50.920;11.612;2022-12-18T18:20:06;4.47;;;3.60;;
22794;SDS011;11564;50.920;11.612;2022-12-18T18:22:32;4.57;;;4.13;;
22794;SDS011;11564;50.920;11.612;2022-12-18T18:29:49;7.30;;;4.17;;
22794;SDS011;11564;50.920;11.612;2022-12-18T18:32:15;4.93;;;4.30;;
22794;SDS011;11564;50.920;11.612;2022-12-18T18:34:40;5.27;;;4.00;;
22794;SDS011;11564;50.920;11.612;2022-12-18T18:37:07;5.80;;;3.43;;
22794;SDS011;11564;50.920;11.612;2022-12-18T18:39:33;6.50;;;3.93;;
22794;SDS011;11564;50.920;11.612;2022-12-18T18:41:59;6.50;;;3.83;;
22794;SDS011;11564;50.920;11.612;2022-12-18T18:44:25;5.50;;;3.60;;
22794;SDS011;11564;50.920;11.612;2022-12-18T18:46:52;6.40;;;3.90;;
22794;SDS011;11564;50.920;11.612;2022-12-18T18:49:19;4.20;;;3.80;;
22794;SDS011;11564;50.920;11.612;2022-12-18T18:51:44;6.63;;;4.07;;
22794;SDS011;11564;50.920;11.612;2022-12-18T18:54:10;12.40;;;5.53;;
22794;SDS011;11564;50.920;11.612;2022-12-18T18:56:36;7.73;;;5.40;;
22794;SDS011;11564;50.920;11.612;2022-12-18T18:59:01;10.27;;;7.27;;
22794;SDS011;11564;50.920;11.612;2022-12-18T19:01:27;7.60;;;4.50;;
22794;SDS011;11564;50.920;11.612;2022-12-18T19:03:53;4.87;;;3.77;;
22794;SDS011;11564;50.920;11.612;2022-12-18T19:06:20;8.23;;;4.40;;
22794;SDS011;11564;50.920;11.612;2022-12-18T19:08:48;10.00;;;5.40;;
22794;SDS011;11564;50.920;11.612;2022-12-18T19:11:14;6.40;;;4.50;;
22794;SDS011;11564;50.920;11.612;2022-12-18T19:13:59;6.33;;;3.67;;
22794;SDS011;11564;50.920;11.612;2022-12-18T19:16:26;6.70;;;5.17;;
22794;SDS011;11564;50.920;11.612;2022-12-18T19:18:52;5.27;;;4.47;;
22794;SDS011;11564;50.920;11.612;2022-12-18T19:21:19;4.30;;;3.90;;
22794;SDS011;11564;50.920;11.612;2022-12-18T19:23:45;5.20;;;4.17;;
22794;SDS011;11564;50.920;11.612;2022-12-18T19:26:11;7.00;;;3.80;;
22794;SDS011;11564;50.920;11.612;2022-12-18T19:28:38;5.80;;;4.30;;
22794;SDS011;11564;50.920;11.612;2022-12-18T19:31:05;4.00;;;3.60;;
22794;SDS011;11564;50.920;11.612;2022-12-18T19:33:34;4.20;;;3.43;;
22794;SDS011;11564;50.920;11.612;2022-12-18T19:36:08;6.73;;;4.73;;
22794;SDS011;11564;50.920;11.612;2022-12-18T19:38:54;6.50;;;4.27;;
22794;SDS011;11564;50.920;11.612;2022-12-18T19:41:22;4.23;;;3.83;;
22794;SDS011;11564;50.920;11.612;2022-12-18T19:43:49;4.10;;;3.70;;
22794;SDS011;11564;50.920;11.612;2022-12-18T19:46:16;7.07;;;4.37;;
22794;SDS011;11564;50.920;11.612;2022-12-18T19:48:43;3.80;;;3.50;;
22794;SDS011;11564;50.920;11.612;2022-12-18T19:51:11;3.73;;;3.37;;
22794;SDS011;11564;50.920;11.612;2022-12-18T19:53:43;4.20;;;3.80;;
22794;SDS011;11564;50.920;11.612;2022-12-18T19:56:11;6.73;;;3.80;;
22794;SDS011;11564;50.920;11.612;2022-12-18T19:58:38;3.30;;;3.00;;
22794;SDS011;11564;50.920;11.612;2022-12-18T20:01:05;6.10;;;3.43;;
22794;SDS011;11564;50.920;11.612;2022-12-18T20:03:31;4.70;;;3.40;;
22794;SDS011;11564;50.920;11.612;2022-12-18T20:08:48;6.43;;;3.97;;
22794;SDS011;11564;50.920;11.612;2022-12-18T20:11:14;5.13;;;4.23;;
22794;SDS011;11564;50.920;11.612;2022-12-18T20:13:40;4.83;;;4.30;;
22794;SDS011;11564;50.920;11.612;2022-12-18T20:16:05;5.07;;;3.37;;
22794;SDS011;11564;50.920;11.612;2022-12-18T20:18:31;6.23;;;3.87;;
22794;SDS011;11564;50.920;11.612;2022-12-18T20:20:57;4.50;;;3.70;;
22794;SDS011;11564;50.920;11.612;2022-12-18T20:23:23;3.20;;;2.90;;
22794;SDS011;11564;50.920;11.612;2022-12-18T20:25:50;4.03;;;3.60;;
22794;SDS011;11564;50.920;11.612;2022-12-18T20:28:18;6.20;;;3.60;;
22794;SDS011;11564;50.920;11.612;2022-12-18T20:30:44;3.80;;;3.50;;
22794;SDS011;11564;50.920;11.612;2022-12-18T20:33:10;7.30;;;4.67;;
22794;SDS011;11564;50.920;11.612;2022-12-18T20:35:36;4.57;;;3.70;;
22794;SDS011;11564;50.920;11.612;2022-12-18T20:38:02;6.17;;;3.70;;
22794;SDS011;11564;50.920;11.612;2022-12-18T20:40:29;6.00;;;4.00;;
22794;SDS011;11564;50.920;11.612;2022-12-18T20:42:54;6.60;;;4.27;;
22794;SDS011;11564;50.920;11.612;2022-12-18T20:45:21;4.17;;;3.67;;
22794;SDS011;11564;50.920;11.612;2022-12-18T20:47:46;3.83;;;3.33;;
22794;SDS011;11564;50.920;11.612;2022-12-18T20:50:12;5.20;;;3.30;;
22794;SDS011;11564;50.920;11.612;2022-12-18T20:52:38;4.90;;;4.17;;
22794;SDS011;11564;50.920;11.612;2022-12-18T20:55:04;4.07;;;3.60;;
22794;SDS011;11564;50.920;11.612;2022-12-18T20:57:31;4.73;;;3.93;;
22794;SDS011;11564;50.920;11.612;2022-12-18T20:59:57;6.87;;;4.10;;
22794;SDS011;11564;50.920;11.612;2022-12-18T21:02:23;4.83;;;3.80;;
22794;SDS011;11564;50.920;11.612;2022-12-18T21:04:49;10.30;;;4.10;;
22794;SDS011;11564;50.920;11.612;2022-12-18T21:07:14;4.43;;;4.03;;
22794;SDS011;11564;50.920;11.612;2022-12-18T21:09:40;7.07;;;4.03;;
22794;SDS011;11564;50.920;11.612;2022-12-18T21:12:10;4.57;;;4.10;;
22794;SDS011;11564;50.920;11.612;2022-12-18T21:14:55;7.63;;;4.10;;
22794;SDS011;11564;50.920;11.612;2022-12-18T21:17:23;5.87;;;3.03;;
22794;SDS011;11564;50.920;11.612;2022-12-18T21:19:49;4.33;;;3.83;;
22794;SDS011;11564;50.920;11.612;2022-12-18T21:22:15;4.70;;;4.23;;
22794;SDS011;11564;50.920;11.612;2022-12-18T21:24:41;5.90;;;3.70;;
22794;SDS011;11564;50.920;11.612;2022-12-18T21:27:06;6.40;;;4.00;;
22794;SDS011;11564;50.920;11.612;2022-12-18T21:29:32;6.10;;;4.20;;
22794;SDS011;11564;50.920;11.612;2022-12-18T21:31:58;6.20;;;3.80;;
22794;SDS011;11564;50.920;11.612;2022-12-18T21:34:26;7.63;;;3.87;;
22794;SDS011;11564;50.920;11.612;2022-12-18T21:36:53;4.63;;;3.67;;
22794;SDS011;11564;50.920;11.612;2022-12-18T21:39:20;5.27;;;4.00;;
22794;SDS011;11564;50.920;11.612;2022-12-18T21:41:46;5.87;;;3.57;;
22794;SDS011;11564;50.920;11.612;2022-12-18T21:44:30;3.90;;;3.23;;
22794;SDS011;11564;50.920;11.612;2022-12-18T21:46:56;8.80;;;3.40;;
22794;SDS011;11564;50.920;11.612;2022-12-18T21:49:22;5.10;;;3.70;;
22794;SDS011;11564;50.920;11.612;2022-12-18T21:51:49;5.40;;;3.70;;
22794;SDS011;11564;50.920;11.612;2022-12-18T21:54:16;6.40;;;4.30;;
22794;SDS011;11564;50.920;11.612;2022-12-18T21:59:22;4.63;;;3.63;;
22794;SDS011;11564;50.920;11.612;2022-12-18T22:01:50;4.70;;;3.53;;
22794;SDS011;11564;50.920;11.612;2022-12-18T22:04:17;4.40;;;3.47;;
22794;SDS011;11564;50.920;11.612;2022-12-18T22:06:43;4.70;;;4.07;;
22794;SDS011;11564;50.920;11.612;2022-12-18T22:09:10;4.33;;;3.73;;
22794;SDS011;11564;50.920;11.612;2022-12-18T22:11:37;6.87;;;4.20;;
22794;SDS011;11564;50.920;11.612;2022-12-18T22:14:03;5.40;;;3.50;;
22794;SDS011;11564;50.920;11.612;2022-12-18T22:16:29;4.50;;;4.07;;
22794;SDS011;11564;50.920;11.612;2022-12-18T22:18:54;3.63;;;3.20;;
22794;SDS011;11564;50.920;11.612;2022-12-18T22:23:57;4.40;;;3.77;;
22794;SDS011;11564;50.920;11.612;2022-12-18T22:26:24;4.33;;;3.43;;
22794;SDS011;11564;50.920;11.612;2022-12-18T22:28:51;3.90;;;3.40;;
22794;SDS011;11564;50.920;11.612;2022-12-18T22:31:35;5.33;;;3.90;;
22794;SDS011;11564;50.920;11.612;2022-12-18T22:34:02;8.33;;;4.97;;
22794;SDS011;11564;50.920;11.612;2022-12-18T22:36:33;3.67;;;3.37;;
22794;SDS011;11564;50.920;11.612;2022-12-18T22:39:03;4.83;;;4.10;;
22794;SDS011;11564;50.920;11.612;2022-12-18T22:41:31;6.57;;;4.20;;
22794;SDS011;11564;50.920;11.612;2022-12-18T22:43:57;4.30;;;3.53;;
22794;SDS011;11564;50.920;11.612;2022-12-18T22:46:23;6.07;;;3.93;;
22794;SDS011;11564;50.920;11.612;2022-12-18T22:48:50;6.17;;;5.10;;
22794;SDS011;11564;50.920;11.612;2022-12-18T22:51:16;4.47;;;3.77;;
22794;SDS011;11564;50.920;11.612;2022-12-18T22:53:43;4.77;;;3.47;;
22794;SDS011;11564;50.920;11.612;2022-12-18T22:56:09;5.40;;;4.53;;
22794;SDS011;11564;50.920;11.612;2022-12-18T22:58:36;6.17;;;5.10;;
22794;SDS011;11564;50.920;11.612;2022-12-18T23:01:02;4.50;;;3.90;;
22794;SDS011;11564;50.920;11.612;2022-12-18T23:03:28;6.50;;;4.30;;
22794;SDS011;11564;50.920;11.612;2022-12-18T23:06:03;6.07;;;4.20;;